sensor_id;sensor_type;location;lat;lon;timestamp;P1;durP1;ratioP1;P2;durP2;ratioP2
51358;SDS011;37448;51.588;7.248;2024-01-10T00:00:15;7.20;;;3.63;;
51358;SDS011;37448;51.588;7.248;2024-01-10T00:02:15;8.20;;;3.35;;
51358;SDS011;37448;51.588;7.248;2024-01-10T00:04:16;7.05;;;3.05;;
51358;SDS011;37448;51.588;7.248;2024-01-10T00:06:16;6.35;;;3.88;;
51358;SDS011;37448;51.588;7.248;2024-01-10T00:08:17;7.22;;;3.25;;
51358;SDS011;37448;51.588;7.248;2024-01-10T00:10:17;11.60;;;4.35;;
51358;SDS011;37448;51.588;7.248;2024-01-10T00:12:18;5.00;;;3.45;;
51358;SDS011;37448;51.588;7.248;2024-01-10T00:14:18;9.60;;;3.60;;
51358;SDS011;37448;51.588;7.248;2024-01-10T00:16:18;5.85;;;3.28;;
51358;SDS011;37448;51.588;7.248;2024-01-10T00:18:19;6.10;;;3.10;;
51358;SDS011;37448;51.588;7.248;2024-01-10T00:20:19;6.78;;;3.63;;
51358;SDS011;37448;51.588;7.248;2024-01-10T00:22:19;7.13;;;3.42;;
51358;SDS011;37448;51.588;7.248;2024-01-10T00:24:20;10.20;;;3.65;;
51358;SDS011;37448;51.588;7.248;2024-01-10T00:26:20;7.80;;;3.50;;
51358;SDS011;37448;51.588;7.248;2024-01-10T00:28:21;10.25;;;4.88;;
51358;SDS011;37448;51.588;7.248;2024-01-10T00:30:21;8.30;;;4.07;;
51358;SDS011;37448;51.588;7.248;2024-01-10T00:32:21;7.88;;;4.38;;
51358;SDS011;37448;51.588;7.248;2024-01-10T00:34:22;8.80;;;4.30;;
51358;SDS011;37448;51.588;7.248;2024-01-10T00:36:22;7.05;;;4.10;;
51358;SDS011;37448;51.588;7.248;2024-01-10T00:38:22;7.07;;;3.47;;
51358;SDS011;37448;51.588;7.248;2024-01-10T00:40:23;4.65;;;3.33;;
51358;SDS011;37448;51.588;7.248;2024-01-10T00:42:23;6.25;;;3.25;;
51358;SDS011;37448;51.588;7.248;2024-01-10T00:44:23;5.45;;;3.17;;
51358;SDS011;37448;51.588;7.248;2024-01-10T00:46:24;9.40;;;4.28;;
51358;SDS011;37448;51.588;7.248;2024-01-10T00:48:24;10.15;;;3.35;;
51358;SDS011;37448;51.588;7.248;2024-01-10T00:50:25;9.95;;;3.67;;
51358;SDS011;37448;51.588;7.248;2024-01-10T00:52:25;9.25;;;4.20;;
51358;SDS011;37448;51.588;7.248;2024-01-10T00:54:26;10.18;;;4.22;;
51358;SDS011;37448;51.588;7.248;2024-01-10T00:56:26;7.53;;;3.55;;
51358;SDS011;37448;51.588;7.248;2024-01-10T00:58:26;7.95;;;3.13;;
51358;SDS011;37448;51.588;7.248;2024-01-10T01:00:27;11.43;;;4.13;;
51358;SDS011;37448;51.588;7.248;2024-01-10T01:02:27;7.68;;;3.60;;
51358;SDS011;37448;51.588;7.248;2024-01-10T01:04:27;4.65;;;2.53;;
51358;SDS011;37448;51.588;7.248;2024-01-10T01:06:28;8.10;;;4.07;;
51358;SDS011;37448;51.588;7.248;2024-01-10T01:08:28;8.57;;;3.70;;
51358;SDS011;37448;51.588;7.248;2024-01-10T01:10:28;9.35;;;3.72;;
51358;SDS011;37448;51.588;7.248;2024-01-10T01:12:29;5.22;;;2.92;;
51358;SDS011;37448;51.588;7.248;2024-01-10T01:14:29;9.30;;;4.45;;
51358;SDS011;37448;51.588;7.248;2024-01-10T01:16:29;5.53;;;3.92;;
51358;SDS011;37448;51.588;7.248;2024-01-10T01:18:30;8.32;;;4.15;;
51358;SDS011;37448;51.588;7.248;2024-01-10T01:20:30;7.43;;;3.53;;
51358;SDS011;37448;51.588;7.248;2024-01-10T01:22:30;6.60;;;3.90;;
51358;SDS011;37448;51.588;7.248;2024-01-10T01:24:31;7.57;;;4.07;;
51358;SDS011;37448;51.588;7.248;2024-01-10T01:26:32;6.13;;;2.67;;
51358;SDS011;37448;51.588;7.248;2024-01-10T01:28:32;8.02;;;4.03;;
51358;SDS011;37448;51.588;7.248;2024-01-10T01:30:32;8.40;;;4.18;;
51358;SDS011;37448;51.588;7.248;2024-01-10T01:32:33;6.95;;;3.90;;
51358;SDS011;37448;51.588;7.248;2024-01-10T01:34:33;9.73;;;4.40;;
51358;SDS011;37448;51.588;7.248;2024-01-10T01:36:33;8.60;;;3.55;;
51358;SDS011;37448;51.588;7.248;2024-01-10T01:38:34;8.88;;;3.60;;
51358;SDS011;37448;51.588;7.248;2024-01-10T01:40:35;9.60;;;4.40;;
51358;SDS011;37448;51.588;7.248;2024-01-10T01:42:36;6.40;;;3.40;;
51358;SDS011;37448;51.588;7.248;2024-01-10T01:44:36;10.00;;;3.45;;
51358;SDS011;37448;51.588;7.248;2024-01-10T01:46:36;7.20;;;4.05;;
51358;SDS011;37448;51.588;7.248;2024-01-10T01:48:37;6.45;;;3.53;;
51358;SDS011;37448;51.588;7.248;2024-01-10T01:50:38;5.43;;;2.85;;
51358;SDS011;37448;51.588;7.248;2024-01-10T01:52:38;8.02;;;3.90;;
51358;SDS011;37448;51.588;7.248;2024-01-10T01:54:39;7.55;;;3.58;;
51358;SDS011;37448;51.588;7.248;2024-01-10T01:56:40;8.00;;;4.63;;
51358;SDS011;37448;51.588;7.248;2024-01-10T01:58:42;10.05;;;3.88;;
51358;SDS011;37448;51.588;7.248;2024-01-10T02:00:43;5.05;;;3.33;;
51358;SDS011;37448;51.588;7.248;2024-01-10T02:02:44;6.15;;;3.17;;
51358;SDS011;37448;51.588;7.248;2024-01-10T02:04:46;7.07;;;3.72;;
51358;SDS011;37448;51.588;7.248;2024-01-10T02:06:46;7.15;;;4.45;;
51358;SDS011;37448;51.588;7.248;2024-01-10T02:08:47;9.48;;;3.85;;
51358;SDS011;37448;51.588;7.248;2024-01-10T02:10:48;7.88;;;3.58;;
51358;SDS011;37448;51.588;7.248;2024-01-10T02:12:48;6.15;;;3.40;;
51358;SDS011;37448;51.588;7.248;2024-01-10T02:14:49;6.55;;;3.97;;
51358;SDS011;37448;51.588;7.248;2024-01-10T02:16:49;9.80;;;4.68;;
51358;SDS011;37448;51.588;7.248;2024-01-10T02:18:50;7.47;;;3.53;;
51358;SDS011;37448;51.588;7.248;2024-01-10T02:20:50;7.10;;;3.65;;
51358;SDS011;37448;51.588;7.248;2024-01-10T02:22:52;8.68;;;3.42;;
51358;SDS011;37448;51.588;7.248;2024-01-10T02:24:53;8.57;;;3.25;;
51358;SDS011;37448;51.588;7.248;2024-01-10T02:26:54;5.82;;;3.40;;
51358;SDS011;37448;51.588;7.248;2024-01-10T02:28:55;6.53;;;3.03;;
51358;SDS011;37448;51.588;7.248;2024-01-10T02:30:56;9.48;;;3.88;;
51358;SDS011;37448;51.588;7.248;2024-01-10T02:32:57;6.88;;;3.35;;
51358;SDS011;37448;51.588;7.248;2024-01-10T02:34:58;10.10;;;4.30;;
51358;SDS011;37448;51.588;7.248;2024-01-10T02:36:58;7.90;;;4.53;;
51358;SDS011;37448;51.588;7.248;2024-01-10T02:38:59;14.60;;;2.78;;
51358;SDS011;37448;51.588;7.248;2024-01-10T02:40:59;8.70;;;4.22;;
51358;SDS011;37448;51.588;7.248;2024-01-10T02:43:02;8.18;;;4.22;;
51358;SDS011;37448;51.588;7.248;2024-01-10T02:45:03;6.40;;;4.00;;
51358;SDS011;37448;51.588;7.248;2024-01-10T02:47:04;6.90;;;4.20;;
51358;SDS011;37448;51.588;7.248;2024-01-10T02:49:06;7.85;;;4.10;;
51358;SDS011;37448;51.588;7.248;2024-01-10T02:51:06;10.02;;;4.13;;
51358;SDS011;37448;51.588;7.248;2024-01-10T02:53:06;9.10;;;3.72;;
51358;SDS011;37448;51.588;7.248;2024-01-10T02:55:07;5.97;;;3.33;;
51358;SDS011;37448;51.588;7.248;2024-01-10T02:57:07;8.00;;;4.15;;
51358;SDS011;37448;51.588;7.248;2024-01-10T02:59:08;11.00;;;4.22;;
51358;SDS011;37448;51.588;7.248;2024-01-10T03:01:08;7.22;;;4.15;;
51358;SDS011;37448;51.588;7.248;2024-01-10T03:03:09;6.07;;;3.20;;
51358;SDS011;37448;51.588;7.248;2024-01-10T03:05:09;8.40;;;4.47;;
51358;SDS011;37448;51.588;7.248;2024-01-10T03:07:10;10.90;;;4.57;;
51358;SDS011;37448;51.588;7.248;2024-01-10T03:09:10;7.75;;;4.28;;
51358;SDS011;37448;51.588;7.248;2024-01-10T03:11:11;8.35;;;3.78;;
51358;SDS011;37448;51.588;7.248;2024-01-10T03:13:11;7.65;;;4.22;;
51358;SDS011;37448;51.588;7.248;2024-01-10T03:15:11;11.25;;;4.80;;
51358;SDS011;37448;51.588;7.248;2024-01-10T03:17:12;8.98;;;4.32;;
51358;SDS011;37448;51.588;7.248;2024-01-10T03:19:12;10.73;;;3.95;;
51358;SDS011;37448;51.588;7.248;2024-01-10T03:21:13;6.28;;;3.40;;
51358;SDS011;37448;51.588;7.248;2024-01-10T03:23:13;7.70;;;3.60;;
51358;SDS011;37448;51.588;7.248;2024-01-10T03:25:13;7.30;;;3.75;;
51358;SDS011;37448;51.588;7.248;2024-01-10T03:27:14;9.40;;;4.30;;
51358;SDS011;37448;51.588;7.248;2024-01-10T03:29:14;8.52;;;4.15;;
51358;SDS011;37448;51.588;7.248;2024-01-10T03:31:16;9.68;;;3.88;;
51358;SDS011;37448;51.588;7.248;2024-01-10T03:33:17;9.05;;;4.68;;
51358;SDS011;37448;51.588;7.248;2024-01-10T03:35:17;10.07;;;3.85;;
51358;SDS011;37448;51.588;7.248;2024-01-10T03:37:17;7.93;;;3.80;;
51358;SDS011;37448;51.588;7.248;2024-01-10T03:39:18;8.60;;;4.93;;
51358;SDS011;37448;51.588;7.248;2024-01-10T03:41:19;6.63;;;3.25;;
51358;SDS011;37448;51.588;7.248;2024-01-10T03:43:20;7.18;;;3.83;;
51358;SDS011;37448;51.588;7.248;2024-01-10T03:45:20;7.00;;;4.20;;
51358;SDS011;37448;51.588;7.248;2024-01-10T03:47:23;8.90;;;4.50;;
51358;SDS011;37448;51.588;7.248;2024-01-10T03:49:23;7.47;;;3.88;;
51358;SDS011;37448;51.588;7.248;2024-01-10T03:51:24;8.70;;;3.85;;
51358;SDS011;37448;51.588;7.248;2024-01-10T03:53:24;7.30;;;3.65;;
51358;SDS011;37448;51.588;7.248;2024-01-10T03:55:25;6.43;;;4.07;;
51358;SDS011;37448;51.588;7.248;2024-01-10T03:57:25;5.78;;;2.75;;
51358;SDS011;37448;51.588;7.248;2024-01-10T03:59:25;6.00;;;3.92;;
51358;SDS011;37448;51.588;7.248;2024-01-10T04:01:26;13.15;;;4.80;;
51358;SDS011;37448;51.588;7.248;2024-01-10T04:03:26;11.15;;;3.72;;
51358;SDS011;37448;51.588;7.248;2024-01-10T04:05:26;7.03;;;3.53;;
51358;SDS011;37448;51.588;7.248;2024-01-10T04:07:27;8.40;;;3.15;;
51358;SDS011;37448;51.588;7.248;2024-01-10T04:09:28;6.63;;;3.83;;
51358;SDS011;37448;51.588;7.248;2024-01-10T04:11:28;5.60;;;3.50;;
51358;SDS011;37448;51.588;7.248;2024-01-10T04:13:29;11.70;;;4.97;;
51358;SDS011;37448;51.588;7.248;2024-01-10T04:15:29;7.35;;;3.95;;
51358;SDS011;37448;51.588;7.248;2024-01-10T04:17:29;7.05;;;4.10;;
51358;SDS011;37448;51.588;7.248;2024-01-10T04:19:30;8.45;;;3.67;;
51358;SDS011;37448;51.588;7.248;2024-01-10T04:21:31;9.77;;;3.80;;
51358;SDS011;37448;51.588;7.248;2024-01-10T04:23:31;5.78;;;3.42;;
51358;SDS011;37448;51.588;7.248;2024-01-10T04:25:33;8.27;;;3.83;;
51358;SDS011;37448;51.588;7.248;2024-01-10T04:27:34;6.80;;;3.08;;
51358;SDS011;37448;51.588;7.248;2024-01-10T04:29:34;10.07;;;5.03;;
51358;SDS011;37448;51.588;7.248;2024-01-10T04:31:35;6.57;;;2.85;;
51358;SDS011;37448;51.588;7.248;2024-01-10T04:33:35;7.60;;;4.03;;
51358;SDS011;37448;51.588;7.248;2024-01-10T04:35:36;6.32;;;3.75;;
51358;SDS011;37448;51.588;7.248;2024-01-10T04:37:36;12.55;;;4.38;;
51358;SDS011;37448;51.588;7.248;2024-01-10T04:39:37;7.70;;;3.50;;
51358;SDS011;37448;51.588;7.248;2024-01-10T04:41:42;6.65;;;3.45;;
51358;SDS011;37448;51.588;7.248;2024-01-10T04:43:43;6.38;;;3.95;;
51358;SDS011;37448;51.588;7.248;2024-01-10T04:45:43;8.60;;;4.47;;
51358;SDS011;37448;51.588;7.248;2024-01-10T04:47:43;8.73;;;4.05;;
51358;SDS011;37448;51.588;7.248;2024-01-10T04:49:45;6.85;;;4.13;;
51358;SDS011;37448;51.588;7.248;2024-01-10T04:51:45;5.70;;;3.92;;
51358;SDS011;37448;51.588;7.248;2024-01-10T04:53:46;11.85;;;4.97;;
51358;SDS011;37448;51.588;7.248;2024-01-10T04:55:46;6.13;;;3.40;;
51358;SDS011;37448;51.588;7.248;2024-01-10T04:57:47;5.80;;;3.92;;
51358;SDS011;37448;51.588;7.248;2024-01-10T04:59:47;7.90;;;4.25;;
51358;SDS011;37448;51.588;7.248;2024-01-10T05:01:49;10.27;;;3.80;;
51358;SDS011;37448;51.588;7.248;2024-01-10T05:03:50;7.88;;;3.30;;
51358;SDS011;37448;51.588;7.248;2024-01-10T05:05:50;7.65;;;3.53;;
51358;SDS011;37448;51.588;7.248;2024-01-10T05:07:51;6.07;;;3.13;;
51358;SDS011;37448;51.588;7.248;2024-01-10T05:09:51;6.00;;;3.10;;
51358;SDS011;37448;51.588;7.248;2024-01-10T05:11:55;6.55;;;3.85;;
51358;SDS011;37448;51.588;7.248;2024-01-10T05:13:56;10.82;;;4.40;;
51358;SDS011;37448;51.588;7.248;2024-01-10T05:15:56;7.72;;;3.78;;
51358;SDS011;37448;51.588;7.248;2024-01-10T05:17:56;7.97;;;4.07;;
51358;SDS011;37448;51.588;7.248;2024-01-10T05:19:57;9.63;;;3.42;;
51358;SDS011;37448;51.588;7.248;2024-01-10T05:21:58;12.07;;;4.93;;
51358;SDS011;37448;51.588;7.248;2024-01-10T05:23:59;7.30;;;4.28;;
51358;SDS011;37448;51.588;7.248;2024-01-10T05:25:59;7.03;;;3.40;;
51358;SDS011;37448;51.588;7.248;2024-01-10T05:27:59;8.43;;;4.57;;
51358;SDS011;37448;51.588;7.248;2024-01-10T05:30:00;12.65;;;4.93;;
51358;SDS011;37448;51.588;7.248;2024-01-10T05:32:01;9.25;;;4.70;;
51358;SDS011;37448;51.588;7.248;2024-01-10T05:34:01;13.23;;;6.03;;
51358;SDS011;37448;51.588;7.248;2024-01-10T05:36:02;7.28;;;3.90;;
51358;SDS011;37448;51.588;7.248;2024-01-10T05:38:03;8.55;;;4.03;;
51358;SDS011;37448;51.588;7.248;2024-01-10T05:40:03;7.35;;;3.28;;
51358;SDS011;37448;51.588;7.248;2024-01-10T05:42:07;9.18;;;4.63;;
51358;SDS011;37448;51.588;7.248;2024-01-10T05:44:08;6.82;;;3.83;;
51358;SDS011;37448;51.588;7.248;2024-01-10T05:46:09;10.57;;;4.47;;
51358;SDS011;37448;51.588;7.248;2024-01-10T05:50:13;10.30;;;3.93;;
51358;SDS011;37448;51.588;7.248;2024-01-10T05:52:13;10.35;;;5.53;;
51358;SDS011;37448;51.588;7.248;2024-01-10T05:54:14;9.82;;;4.70;;
51358;SDS011;37448;51.588;7.248;2024-01-10T05:56:18;11.65;;;6.30;;
51358;SDS011;37448;51.588;7.248;2024-01-10T05:58:21;8.80;;;4.65;;
51358;SDS011;37448;51.588;7.248;2024-01-10T06:00:22;7.00;;;4.38;;
51358;SDS011;37448;51.588;7.248;2024-01-10T06:02:22;9.90;;;5.53;;
51358;SDS011;37448;51.588;7.248;2024-01-10T06:04:24;9.38;;;5.43;;
51358;SDS011;37448;51.588;7.248;2024-01-10T06:06:24;10.88;;;4.32;;
51358;SDS011;37448;51.588;7.248;2024-01-10T06:08:25;11.65;;;4.32;;
51358;SDS011;37448;51.588;7.248;2024-01-10T06:10:25;9.07;;;4.32;;
51358;SDS011;37448;51.588;7.248;2024-01-10T06:12:26;9.25;;;4.55;;
51358;SDS011;37448;51.588;7.248;2024-01-10T06:14:26;8.02;;;4.70;;
51358;SDS011;37448;51.588;7.248;2024-01-10T06:16:26;9.65;;;4.32;;
51358;SDS011;37448;51.588;7.248;2024-01-10T06:18:27;10.68;;;5.35;;
51358;SDS011;37448;51.588;7.248;2024-01-10T06:20:27;10.38;;;4.32;;
51358;SDS011;37448;51.588;7.248;2024-01-10T06:22:28;10.13;;;4.22;;
51358;SDS011;37448;51.588;7.248;2024-01-10T06:24:28;13.18;;;5.55;;
51358;SDS011;37448;51.588;7.248;2024-01-10T06:26:28;9.82;;;5.10;;
51358;SDS011;37448;51.588;7.248;2024-01-10T06:28:29;9.13;;;4.45;;
51358;SDS011;37448;51.588;7.248;2024-01-10T06:30:29;7.22;;;5.20;;
51358;SDS011;37448;51.588;7.248;2024-01-10T06:32:29;14.07;;;6.30;;
51358;SDS011;37448;51.588;7.248;2024-01-10T06:34:30;9.88;;;4.85;;
51358;SDS011;37448;51.588;7.248;2024-01-10T06:36:30;8.40;;;4.45;;
51358;SDS011;37448;51.588;7.248;2024-01-10T06:38:30;9.52;;;5.03;;
51358;SDS011;37448;51.588;7.248;2024-01-10T06:40:31;6.10;;;3.85;;
51358;SDS011;37448;51.588;7.248;2024-01-10T06:42:31;11.65;;;4.40;;
51358;SDS011;37448;51.588;7.248;2024-01-10T06:44:32;11.70;;;4.80;;
51358;SDS011;37448;51.588;7.248;2024-01-10T06:46:32;14.65;;;5.10;;
51358;SDS011;37448;51.588;7.248;2024-01-10T06:48:33;9.88;;;4.97;;
51358;SDS011;37448;51.588;7.248;2024-01-10T06:50:34;10.82;;;5.32;;
51358;SDS011;37448;51.588;7.248;2024-01-10T06:52:34;9.50;;;4.53;;
51358;SDS011;37448;51.588;7.248;2024-01-10T06:54:35;11.60;;;4.80;;
51358;SDS011;37448;51.588;7.248;2024-01-10T06:56:35;9.80;;;4.97;;
51358;SDS011;37448;51.588;7.248;2024-01-10T06:58:35;7.88;;;4.43;;
51358;SDS011;37448;51.588;7.248;2024-01-10T07:00:36;9.63;;;4.47;;
51358;SDS011;37448;51.588;7.248;2024-01-10T07:02:38;6.70;;;3.85;;
51358;SDS011;37448;51.588;7.248;2024-01-10T07:04:38;7.60;;;4.50;;
51358;SDS011;37448;51.588;7.248;2024-01-10T07:06:39;13.02;;;5.95;;
51358;SDS011;37448;51.588;7.248;2024-01-10T07:08:39;11.23;;;5.20;;
51358;SDS011;37448;51.588;7.248;2024-01-10T07:10:39;11.77;;;6.20;;
51358;SDS011;37448;51.588;7.248;2024-01-10T07:12:40;7.53;;;4.22;;
51358;SDS011;37448;51.588;7.248;2024-01-10T07:14:41;13.63;;;5.38;;
51358;SDS011;37448;51.588;7.248;2024-01-10T07:16:41;9.27;;;5.05;;
51358;SDS011;37448;51.588;7.248;2024-01-10T07:18:42;11.55;;;5.47;;
51358;SDS011;37448;51.588;7.248;2024-01-10T07:20:43;5.60;;;3.03;;
51358;SDS011;37448;51.588;7.248;2024-01-10T07:22:43;11.77;;;3.92;;
51358;SDS011;37448;51.588;7.248;2024-01-10T07:24:44;10.75;;;5.68;;
51358;SDS011;37448;51.588;7.248;2024-01-10T07:26:44;10.20;;;4.97;;
51358;SDS011;37448;51.588;7.248;2024-01-10T07:28:44;7.95;;;3.40;;
51358;SDS011;37448;51.588;7.248;2024-01-10T07:30:45;8.75;;;4.25;;
51358;SDS011;37448;51.588;7.248;2024-01-10T07:32:45;10.50;;;5.93;;
51358;SDS011;37448;51.588;7.248;2024-01-10T07:34:46;10.98;;;5.32;;
51358;SDS011;37448;51.588;7.248;2024-01-10T07:36:47;8.25;;;4.45;;
51358;SDS011;37448;51.588;7.248;2024-01-10T07:38:47;10.05;;;4.88;;
51358;SDS011;37448;51.588;7.248;2024-01-10T07:40:47;11.98;;;4.45;;
51358;SDS011;37448;51.588;7.248;2024-01-10T07:42:48;15.60;;;5.15;;
51358;SDS011;37448;51.588;7.248;2024-01-10T07:44:48;11.23;;;5.47;;
51358;SDS011;37448;51.588;7.248;2024-01-10T07:46:48;10.32;;;4.85;;
51358;SDS011;37448;51.588;7.248;2024-01-10T07:48:50;8.57;;;5.28;;
51358;SDS011;37448;51.588;7.248;2024-01-10T07:50:51;13.20;;;5.90;;
51358;SDS011;37448;51.588;7.248;2024-01-10T07:52:51;13.07;;;6.00;;
51358;SDS011;37448;51.588;7.248;2024-01-10T07:54:51;9.43;;;4.95;;
51358;SDS011;37448;51.588;7.248;2024-01-10T07:56:52;13.60;;;6.72;;
51358;SDS011;37448;51.588;7.248;2024-01-10T07:58:54;10.85;;;4.88;;
51358;SDS011;37448;51.588;7.248;2024-01-10T08:00:55;15.43;;;6.97;;
51358;SDS011;37448;51.588;7.248;2024-01-10T08:02:55;14.23;;;6.63;;
51358;SDS011;37448;51.588;7.248;2024-01-10T08:04:55;13.75;;;6.15;;
51358;SDS011;37448;51.588;7.248;2024-01-10T08:06:56;12.10;;;6.53;;
51358;SDS011;37448;51.588;7.248;2024-01-10T08:08:57;16.27;;;6.80;;
51358;SDS011;37448;51.588;7.248;2024-01-10T08:10:57;15.02;;;6.03;;
51358;SDS011;37448;51.588;7.248;2024-01-10T08:12:57;9.65;;;6.13;;
51358;SDS011;37448;51.588;7.248;2024-01-10T08:14:58;12.50;;;5.93;;
51358;SDS011;37448;51.588;7.248;2024-01-10T08:16:58;11.15;;;5.63;;
51358;SDS011;37448;51.588;7.248;2024-01-10T08:19:00;11.82;;;5.95;;
51358;SDS011;37448;51.588;7.248;2024-01-10T08:21:00;14.35;;;6.32;;
51358;SDS011;37448;51.588;7.248;2024-01-10T08:23:01;12.48;;;5.95;;
51358;SDS011;37448;51.588;7.248;2024-01-10T08:25:01;15.23;;;6.43;;
51358;SDS011;37448;51.588;7.248;2024-01-10T08:27:02;15.70;;;6.57;;
51358;SDS011;37448;51.588;7.248;2024-01-10T08:29:03;12.02;;;5.10;;
51358;SDS011;37448;51.588;7.248;2024-01-10T08:31:04;12.90;;;5.85;;
51358;SDS011;37448;51.588;7.248;2024-01-10T08:33:04;12.50;;;5.82;;
51358;SDS011;37448;51.588;7.248;2024-01-10T08:35:05;11.30;;;6.78;;
51358;SDS011;37448;51.588;7.248;2024-01-10T08:37:07;16.25;;;7.20;;
51358;SDS011;37448;51.588;7.248;2024-01-10T08:39:07;13.45;;;6.35;;
51358;SDS011;37448;51.588;7.248;2024-01-10T08:41:08;12.48;;;6.72;;
51358;SDS011;37448;51.588;7.248;2024-01-10T08:43:11;13.75;;;6.10;;
51358;SDS011;37448;51.588;7.248;2024-01-10T08:45:11;12.73;;;5.72;;
51358;SDS011;37448;51.588;7.248;2024-01-10T08:47:12;11.43;;;5.63;;
51358;SDS011;37448;51.588;7.248;2024-01-10T08:49:12;12.88;;;6.25;;
51358;SDS011;37448;51.588;7.248;2024-01-10T08:51:13;16.17;;;5.88;;
51358;SDS011;37448;51.588;7.248;2024-01-10T08:53:16;12.40;;;6.60;;
51358;SDS011;37448;51.588;7.248;2024-01-10T08:55:16;17.27;;;7.22;;
51358;SDS011;37448;51.588;7.248;2024-01-10T08:57:17;13.40;;;6.97;;
51358;SDS011;37448;51.588;7.248;2024-01-10T08:59:17;12.30;;;6.18;;
51358;SDS011;37448;51.588;7.248;2024-01-10T09:01:18;13.13;;;6.10;;
51358;SDS011;37448;51.588;7.248;2024-01-10T09:03:19;11.60;;;6.03;;
51358;SDS011;37448;51.588;7.248;2024-01-10T09:05:19;13.82;;;6.50;;
51358;SDS011;37448;51.588;7.248;2024-01-10T09:07:20;11.40;;;5.88;;
51358;SDS011;37448;51.588;7.248;2024-01-10T09:09:21;14.13;;;7.18;;
51358;SDS011;37448;51.588;7.248;2024-01-10T09:11:21;15.30;;;7.50;;
51358;SDS011;37448;51.588;7.248;2024-01-10T09:13:22;13.43;;;7.18;;
51358;SDS011;37448;51.588;7.248;2024-01-10T09:15:22;9.05;;;4.70;;
51358;SDS011;37448;51.588;7.248;2024-01-10T09:17:23;14.32;;;6.53;;
51358;SDS011;37448;51.588;7.248;2024-01-10T09:19:23;15.80;;;8.05;;
51358;SDS011;37448;51.588;7.248;2024-01-10T09:21:25;15.10;;;6.72;;
51358;SDS011;37448;51.588;7.248;2024-01-10T09:23:26;14.23;;;6.03;;
51358;SDS011;37448;51.588;7.248;2024-01-10T09:25:27;11.25;;;5.95;;
51358;SDS011;37448;51.588;7.248;2024-01-10T09:27:28;17.08;;;6.70;;
51358;SDS011;37448;51.588;7.248;2024-01-10T09:29:28;18.30;;;6.70;;
51358;SDS011;37448;51.588;7.248;2024-01-10T09:31:29;16.50;;;7.18;;
51358;SDS011;37448;51.588;7.248;2024-01-10T09:33:29;14.57;;;6.07;;
51358;SDS011;37448;51.588;7.248;2024-01-10T09:35:29;18.08;;;7.72;;
51358;SDS011;37448;51.588;7.248;2024-01-10T09:37:30;19.23;;;7.65;;
51358;SDS011;37448;51.588;7.248;2024-01-10T09:39:30;13.32;;;7.40;;
51358;SDS011;37448;51.588;7.248;2024-01-10T09:41:31;15.30;;;7.93;;
51358;SDS011;37448;51.588;7.248;2024-01-10T09:43:39;14.68;;;7.22;;
51358;SDS011;37448;51.588;7.248;2024-01-10T09:45:43;14.63;;;6.38;;
51358;SDS011;37448;51.588;7.248;2024-01-10T09:47:48;14.55;;;8.32;;
51358;SDS011;37448;51.588;7.248;2024-01-10T09:49:55;15.70;;;6.78;;
51358;SDS011;37448;51.588;7.248;2024-01-10T09:51:59;14.30;;;6.68;;
51358;SDS011;37448;51.588;7.248;2024-01-10T09:54:02;16.42;;;6.50;;
51358;SDS011;37448;51.588;7.248;2024-01-10T09:56:04;20.20;;;8.52;;
51358;SDS011;37448;51.588;7.248;2024-01-10T09:58:05;14.90;;;6.88;;
51358;SDS011;37448;51.588;7.248;2024-01-10T10:00:06;14.82;;;6.95;;
51358;SDS011;37448;51.588;7.248;2024-01-10T10:04:12;15.50;;;6.47;;
51358;SDS011;37448;51.588;7.248;2024-01-10T10:06:13;13.48;;;6.75;;
51358;SDS011;37448;51.588;7.248;2024-01-10T10:08:14;18.63;;;8.60;;
51358;SDS011;37448;51.588;7.248;2024-01-10T10:10:16;14.27;;;8.65;;
51358;SDS011;37448;51.588;7.248;2024-01-10T10:12:17;18.48;;;9.38;;
51358;SDS011;37448;51.588;7.248;2024-01-10T10:14:18;15.23;;;8.05;;
51358;SDS011;37448;51.588;7.248;2024-01-10T10:16:25;17.25;;;8.70;;
51358;SDS011;37448;51.588;7.248;2024-01-10T10:18:29;14.13;;;8.25;;
51358;SDS011;37448;51.588;7.248;2024-01-10T10:20:30;20.35;;;9.35;;
51358;SDS011;37448;51.588;7.248;2024-01-10T10:22:36;18.30;;;9.73;;
51358;SDS011;37448;51.588;7.248;2024-01-10T10:24:37;16.98;;;8.32;;
51358;SDS011;37448;51.588;7.248;2024-01-10T10:26:39;21.20;;;9.85;;
51358;SDS011;37448;51.588;7.248;2024-01-10T10:28:41;16.80;;;9.23;;
51358;SDS011;37448;51.588;7.248;2024-01-10T10:30:41;20.80;;;8.90;;
51358;SDS011;37448;51.588;7.248;2024-01-10T10:32:42;18.90;;;9.25;;
51358;SDS011;37448;51.588;7.248;2024-01-10T10:34:42;21.77;;;8.77;;
51358;SDS011;37448;51.588;7.248;2024-01-10T10:36:42;16.83;;;8.18;;
51358;SDS011;37448;51.588;7.248;2024-01-10T10:38:43;17.33;;;8.15;;
51358;SDS011;37448;51.588;7.248;2024-01-10T10:40:44;15.52;;;6.90;;
51358;SDS011;37448;51.588;7.248;2024-01-10T10:42:45;20.75;;;7.80;;
51358;SDS011;37448;51.588;7.248;2024-01-10T10:44:51;18.52;;;8.35;;
51358;SDS011;37448;51.588;7.248;2024-01-10T10:46:54;15.82;;;7.13;;
51358;SDS011;37448;51.588;7.248;2024-01-10T10:49:00;16.17;;;8.25;;
51358;SDS011;37448;51.588;7.248;2024-01-10T10:53:17;16.80;;;8.52;;
51358;SDS011;37448;51.588;7.248;2024-01-10T10:55:19;20.17;;;8.45;;
51358;SDS011;37448;51.588;7.248;2024-01-10T10:57:20;15.60;;;7.88;;
51358;SDS011;37448;51.588;7.248;2024-01-10T10:59:21;16.23;;;7.75;;
51358;SDS011;37448;51.588;7.248;2024-01-10T11:01:23;15.05;;;8.48;;
51358;SDS011;37448;51.588;7.248;2024-01-10T11:03:24;21.42;;;9.80;;
51358;SDS011;37448;51.588;7.248;2024-01-10T11:05:27;19.20;;;9.13;;
51358;SDS011;37448;51.588;7.248;2024-01-10T11:07:28;14.07;;;7.07;;
51358;SDS011;37448;51.588;7.248;2024-01-10T11:09:28;17.25;;;8.52;;
51358;SDS011;37448;51.588;7.248;2024-01-10T11:11:36;16.45;;;7.15;;
51358;SDS011;37448;51.588;7.248;2024-01-10T11:18:28;15.35;;;8.85;;
51358;SDS011;37448;51.588;7.248;2024-01-10T11:23:20;19.63;;;7.78;;
51358;SDS011;37448;51.588;7.248;2024-01-10T11:25:35;15.38;;;6.68;;
51358;SDS011;37448;51.588;7.248;2024-01-10T11:27:36;18.63;;;10.77;;
51358;SDS011;37448;51.588;7.248;2024-01-10T11:29:37;17.80;;;8.25;;
51358;SDS011;37448;51.588;7.248;2024-01-10T11:31:43;17.55;;;8.25;;
51358;SDS011;37448;51.588;7.248;2024-01-10T11:33:50;17.92;;;7.45;;
51358;SDS011;37448;51.588;7.248;2024-01-10T11:38:14;21.27;;;8.57;;
51358;SDS011;37448;51.588;7.248;2024-01-10T11:40:14;15.02;;;6.90;;
51358;SDS011;37448;51.588;7.248;2024-01-10T11:42:40;18.90;;;8.15;;
51358;SDS011;37448;51.588;7.248;2024-01-10T11:44:47;15.20;;;7.15;;
51358;SDS011;37448;51.588;7.248;2024-01-10T11:46:55;14.38;;;7.75;;
51358;SDS011;37448;51.588;7.248;2024-01-10T11:48:56;17.92;;;8.40;;
51358;SDS011;37448;51.588;7.248;2024-01-10T11:50:57;15.15;;;8.02;;
51358;SDS011;37448;51.588;7.248;2024-01-10T11:52:59;19.23;;;8.52;;
51358;SDS011;37448;51.588;7.248;2024-01-10T11:55:00;17.15;;;10.02;;
51358;SDS011;37448;51.588;7.248;2024-01-10T11:57:01;18.50;;;8.65;;
51358;SDS011;37448;51.588;7.248;2024-01-10T11:59:02;18.63;;;7.80;;
51358;SDS011;37448;51.588;7.248;2024-01-10T12:01:08;20.23;;;8.73;;
51358;SDS011;37448;51.588;7.248;2024-01-10T12:03:11;20.20;;;8.45;;
51358;SDS011;37448;51.588;7.248;2024-01-10T12:05:12;15.43;;;7.97;;
51358;SDS011;37448;51.588;7.248;2024-01-10T12:07:14;15.45;;;7.75;;
51358;SDS011;37448;51.588;7.248;2024-01-10T12:09:15;22.00;;;9.13;;
51358;SDS011;37448;51.588;7.248;2024-01-10T12:11:16;17.98;;;8.98;;
51358;SDS011;37448;51.588;7.248;2024-01-10T12:13:16;16.30;;;9.07;;
51358;SDS011;37448;51.588;7.248;2024-01-10T12:15:17;20.13;;;9.07;;
51358;SDS011;37448;51.588;7.248;2024-01-10T12:17:17;17.67;;;9.25;;
51358;SDS011;37448;51.588;7.248;2024-01-10T12:19:19;17.98;;;9.80;;